sensor_id;sensor_type;location;lat;lon;timestamp;pressure;altitude;pressure_sealevel;temperature;humidity
43147;BME280;28752;48.266;7.402;2023-11-21T00:01:44;98862.81;;;13.61;69.22
43147;BME280;28752;48.266;7.402;2023-11-21T00:04:09;98857.31;;;13.63;69.49
43147;BME280;28752;48.266;7.402;2023-11-21T00:06:35;98851.22;;;13.77;69.27
43147;BME280;28752;48.266;7.402;2023-11-21T00:09:00;98840.84;;;13.82;68.66
43147;BME280;28752;48.266;7.402;2023-11-21T00:11:25;98848.72;;;13.91;68.56
43147;BME280;28752;48.266;7.402;2023-11-21T00:13:51;98839.72;;;13.77;69.36
43147;BME280;28752;48.266;7.402;2023-11-21T00:16:17;98837.03;;;14.00;68.47
43147;BME280;28752;48.266;7.402;2023-11-21T00:18:42;98836.16;;;13.99;68.82
43147;BME280;28752;48.266;7.402;2023-11-21T00:21:08;98860.31;;;13.98;68.52
43147;BME280;28752;48.266;7.402;2023-11-21T00:23:34;98856.91;;;13.89;68.71
43147;BME280;28752;48.266;7.402;2023-11-21T00:26:00;98850.00;;;13.80;68.57
43147;BME280;28752;48.266;7.402;2023-11-21T00:28:26;98852.66;;;13.80;68.93
43147;BME280;28752;48.266;7.402;2023-11-21T00:30:53;98851.13;;;13.85;68.64
43147;BME280;28752;48.266;7.402;2023-11-21T00:33:19;98850.91;;;13.72;69.00
43147;BME280;28752;48.266;7.402;2023-11-21T00:35:46;98848.66;;;13.46;68.83
43147;BME280;28752;48.266;7.402;2023-11-21T00:38:14;98845.72;;;13.79;68.14
43147;BME280;28752;48.266;7.402;2023-11-21T00:40:39;98854.69;;;13.78;68.45
43147;BME280;28752;48.266;7.402;2023-11-21T00:43:05;98856.19;;;13.95;67.91
43147;BME280;28752;48.266;7.402;2023-11-21T00:45:30;98852.34;;;14.13;67.68
43147;BME280;28752;48.266;7.402;2023-11-21T00:47:55;98856.00;;;14.12;67.72
43147;BME280;28752;48.266;7.402;2023-11-21T00:50:21;98856.38;;;14.24;67.00
43147;BME280;28752;48.266;7.402;2023-11-21T00:52:46;98847.66;;;14.45;66.68
43147;BME280;28752;48.266;7.402;2023-11-21T00:55:12;98854.84;;;14.29;67.23
43147;BME280;28752;48.266;7.402;2023-11-21T00:57:38;98847.03;;;14.28;67.59
43147;BME280;28752;48.266;7.402;2023-11-21T01:00:04;98835.41;;;13.91;67.50
43147;BME280;28752;48.266;7.402;2023-11-21T01:02:38;98842.34;;;14.00;66.98
43147;BME280;28752;48.266;7.402;2023-11-21T01:05:04;98853.81;;;14.15;67.32
43147;BME280;28752;48.266;7.402;2023-11-21T01:07:29;98849.41;;;14.08;67.67
43147;BME280;28752;48.266;7.402;2023-11-21T01:09:54;98849.75;;;13.90;68.15
43147;BME280;28752;48.266;7.402;2023-11-21T01:12:21;98854.59;;;13.71;68.45
43147;BME280;28752;48.266;7.402;2023-11-21T01:14:46;98855.53;;;13.55;69.66
43147;BME280;28752;48.266;7.402;2023-11-21T01:17:12;98851.81;;;13.64;69.29
43147;BME280;28752;48.266;7.402;2023-11-21T01:19:37;98846.09;;;13.53;69.05
43147;BME280;28752;48.266;7.402;2023-11-21T01:22:03;98848.50;;;13.62;68.94
43147;BME280;28752;48.266;7.402;2023-11-21T01:24:29;98849.06;;;13.58;68.91
43147;BME280;28752;48.266;7.402;2023-11-21T01:26:54;98848.53;;;13.39;69.16
43147;BME280;28752;48.266;7.402;2023-11-21T01:29:19;98854.69;;;13.40;69.52
43147;BME280;28752;48.266;7.402;2023-11-21T01:31:45;98849.97;;;13.19;70.08
43147;BME280;28752;48.266;7.402;2023-11-21T01:34:10;98846.34;;;13.43;69.29
43147;BME280;28752;48.266;7.402;2023-11-21T01:36:35;98838.88;;;13.15;69.92
43147;BME280;28752;48.266;7.402;2023-11-21T01:39:01;98850.16;;;12.94;70.59
43147;BME280;28752;48.266;7.402;2023-11-21T01:41:27;98843.34;;;12.91;70.69
43147;BME280;28752;48.266;7.402;2023-11-21T01:43:53;98847.06;;;12.82;71.32
43147;BME280;28752;48.266;7.402;2023-11-21T01:46:19;98850.16;;;12.86;71.04
43147;BME280;28752;48.266;7.402;2023-11-21T01:48:46;98858.59;;;12.97;70.92
43147;BME280;28752;48.266;7.402;2023-11-21T01:51:11;98856.09;;;13.19;70.21
43147;BME280;28752;48.266;7.402;2023-11-21T01:53:37;98844.25;;;13.07;70.62
43147;BME280;28752;48.266;7.402;2023-11-21T01:56:04;98852.56;;;13.27;70.44
43147;BME280;28752;48.266;7.402;2023-11-21T01:58:32;98858.06;;;13.33;70.35
43147;BME280;28752;48.266;7.402;2023-11-21T02:00:58;98850.72;;;13.36;70.20
43147;BME280;28752;48.266;7.402;2023-11-21T02:03:23;98849.09;;;13.49;69.68
43147;BME280;28752;48.266;7.402;2023-11-21T02:05:49;98853.84;;;13.39;70.13
43147;BME280;28752;48.266;7.402;2023-11-21T02:08:14;98846.59;;;13.25;69.86
43147;BME280;28752;48.266;7.402;2023-11-21T02:10:39;98846.94;;;13.53;69.34
43147;BME280;28752;48.266;7.402;2023-11-21T02:13:06;98852.06;;;13.55;69.02
43147;BME280;28752;48.266;7.402;2023-11-21T02:15:31;98853.25;;;13.52;69.04
43147;BME280;28752;48.266;7.402;2023-11-21T02:17:56;98860.50;;;13.58;68.85
43147;BME280;28752;48.266;7.402;2023-11-21T02:20:23;98843.56;;;13.59;68.60
43147;BME280;28752;48.266;7.402;2023-11-21T02:22:54;98854.25;;;13.51;69.15
43147;BME280;28752;48.266;7.402;2023-11-21T02:25:24;98847.03;;;13.60;68.64
43147;BME280;28752;48.266;7.402;2023-11-21T02:27:50;98854.25;;;13.51;68.70
43147;BME280;28752;48.266;7.402;2023-11-21T02:30:16;98852.66;;;13.65;68.05
43147;BME280;28752;48.266;7.402;2023-11-21T02:32:42;98841.38;;;13.78;67.58
43147;BME280;28752;48.266;7.402;2023-11-21T02:35:08;98845.03;;;13.39;68.74
43147;BME280;28752;48.266;7.402;2023-11-21T02:37:34;98851.94;;;13.71;67.91
43147;BME280;28752;48.266;7.402;2023-11-21T02:40:00;98846.50;;;13.64;68.08
43147;BME280;28752;48.266;7.402;2023-11-21T02:42:28;98850.00;;;13.42;68.62
43147;BME280;28752;48.266;7.402;2023-11-21T02:44:54;98853.59;;;13.49;68.47
43147;BME280;28752;48.266;7.402;2023-11-21T02:47:19;98855.72;;;13.54;68.38
43147;BME280;28752;48.266;7.402;2023-11-21T02:49:45;98857.97;;;13.65;68.10
43147;BME280;28752;48.266;7.402;2023-11-21T02:52:10;98856.41;;;13.71;67.61
43147;BME280;28752;48.266;7.402;2023-11-21T02:54:35;98863.75;;;13.68;67.84
43147;BME280;28752;48.266;7.402;2023-11-21T02:57:02;98862.72;;;13.55;68.69
43147;BME280;28752;48.266;7.402;2023-11-21T02:59:27;98849.06;;;13.58;68.65
43147;BME280;28752;48.266;7.402;2023-11-21T03:01:53;98863.63;;;13.62;68.59
43147;BME280;28752;48.266;7.402;2023-11-21T03:04:18;98871.38;;;13.72;68.81
43147;BME280;28752;48.266;7.402;2023-11-21T03:06:44;98861.91;;;13.69;69.15
43147;BME280;28752;48.266;7.402;2023-11-21T03:09:10;98856.25;;;13.49;69.72
43147;BME280;28752;48.266;7.402;2023-11-21T03:11:37;98855.69;;;13.39;70.30
43147;BME280;28752;48.266;7.402;2023-11-21T03:14:03;98861.31;;;13.44;70.30
43147;BME280;28752;48.266;7.402;2023-11-21T03:16:28;98868.56;;;13.50;70.19
43147;BME280;28752;48.266;7.402;2023-11-21T03:18:54;98859.19;;;13.54;70.37
43147;BME280;28752;48.266;7.402;2023-11-21T03:21:19;98861.88;;;13.54;70.47
43147;BME280;28752;48.266;7.402;2023-11-21T03:23:45;98866.00;;;13.57;70.64
43147;BME280;28752;48.266;7.402;2023-11-21T03:26:13;98863.47;;;13.40;70.94
43147;BME280;28752;48.266;7.402;2023-11-21T03:28:39;98870.16;;;13.36;70.76
43147;BME280;28752;48.266;7.402;2023-11-21T03:31:04;98864.25;;;13.18;71.02
43147;BME280;28752;48.266;7.402;2023-11-21T03:33:31;98868.84;;;13.01;71.47
43147;BME280;28752;48.266;7.402;2023-11-21T03:35:57;98852.53;;;12.80;71.98
43147;BME280;28752;48.266;7.402;2023-11-21T03:38:23;98868.31;;;13.05;71.13
43147;BME280;28752;48.266;7.402;2023-11-21T03:40:48;98871.13;;;13.12;70.89
43147;BME280;28752;48.266;7.402;2023-11-21T03:43:14;98862.56;;;13.02;71.03
43147;BME280;28752;48.266;7.402;2023-11-21T03:45:39;98858.59;;;12.97;71.09
43147;BME280;28752;48.266;7.402;2023-11-21T03:48:06;98862.16;;;12.82;71.26
43147;BME280;28752;48.266;7.402;2023-11-21T03:50:31;98860.16;;;12.84;71.44
43147;BME280;28752;48.266;7.402;2023-11-21T03:52:57;98868.16;;;13.07;70.80
43147;BME280;28752;48.266;7.402;2023-11-21T03:55:22;98862.28;;;12.88;71.48
43147;BME280;28752;48.266;7.402;2023-11-21T03:57:51;98872.56;;;12.91;70.61
43147;BME280;28752;48.266;7.402;2023-11-21T04:00:17;98868.75;;;13.17;69.83
43147;BME280;28752;48.266;7.402;2023-11-21T04:02:42;98873.44;;;13.15;69.27
43147;BME280;28752;48.266;7.402;2023-11-21T04:05:08;98874.50;;;13.06;69.80
43147;BME280;28752;48.266;7.402;2023-11-21T04:07:34;98883.00;;;13.24;68.86
43147;BME280;28752;48.266;7.402;2023-11-21T04:10:00;98884.38;;;13.43;67.87
43147;BME280;28752;48.266;7.402;2023-11-21T04:12:25;98890.06;;;13.40;68.85
43147;BME280;28752;48.266;7.402;2023-11-21T04:14:51;98888.00;;;13.50;68.32
43147;BME280;28752;48.266;7.402;2023-11-21T04:17:20;98887.63;;;13.30;65.59
43147;BME280;28752;48.266;7.402;2023-11-21T04:19:46;98898.78;;;13.26;66.64
43147;BME280;28752;48.266;7.402;2023-11-21T04:22:11;98896.59;;;13.38;67.23
43147;BME280;28752;48.266;7.402;2023-11-21T04:24:37;98904.03;;;13.42;66.95
43147;BME280;28752;48.266;7.402;2023-11-21T04:27:02;98896.78;;;13.51;66.79
43147;BME280;28752;48.266;7.402;2023-11-21T04:29:28;98900.94;;;13.54;66.09
43147;BME280;28752;48.266;7.402;2023-11-21T04:31:53;98899.59;;;13.58;65.26
43147;BME280;28752;48.266;7.402;2023-11-21T04:34:19;98903.06;;;13.58;65.80
43147;BME280;28752;48.266;7.402;2023-11-21T04:36:44;98903.06;;;13.58;65.31
43147;BME280;28752;48.266;7.402;2023-11-21T04:39:10;98907.84;;;13.40;64.99
43147;BME280;28752;48.266;7.402;2023-11-21T04:41:36;98899.00;;;13.47;63.65
43147;BME280;28752;48.266;7.402;2023-11-21T04:44:05;98898.56;;;13.36;64.73
43147;BME280;28752;48.266;7.402;2023-11-21T04:46:30;98916.66;;;13.40;64.54
43147;BME280;28752;48.266;7.402;2023-11-21T04:48:56;98911.22;;;13.33;64.79
43147;BME280;28752;48.266;7.402;2023-11-21T04:51:21;98912.38;;;13.39;64.29
43147;BME280;28752;48.266;7.402;2023-11-21T04:53:47;98910.94;;;13.52;63.63
43147;BME280;28752;48.266;7.402;2023-11-21T04:56:12;98921.34;;;13.99;62.77
43147;BME280;28752;48.266;7.402;2023-11-21T04:58:38;98912.41;;;13.77;62.55
43147;BME280;28752;48.266;7.402;2023-11-21T05:01:05;98924.84;;;13.77;62.69
43147;BME280;28752;48.266;7.402;2023-11-21T05:03:31;98925.22;;;13.97;61.68
43147;BME280;28752;48.266;7.402;2023-11-21T05:05:57;98930.06;;;13.93;61.80
43147;BME280;28752;48.266;7.402;2023-11-21T05:08:22;98930.72;;;13.95;62.39
43147;BME280;28752;48.266;7.402;2023-11-21T05:10:47;98940.78;;;13.85;63.16
43147;BME280;28752;48.266;7.402;2023-11-21T05:13:15;98929.09;;;14.09;63.23
43147;BME280;28752;48.266;7.402;2023-11-21T05:15:43;98937.91;;;14.10;64.18
43147;BME280;28752;48.266;7.402;2023-11-21T05:18:09;98944.72;;;13.89;65.24
43147;BME280;28752;48.266;7.402;2023-11-21T05:20:35;98946.75;;;13.87;65.72
43147;BME280;28752;48.266;7.402;2023-11-21T05:23:00;98947.75;;;13.63;64.73
43147;BME280;28752;48.266;7.402;2023-11-21T05:25:25;98946.47;;;13.82;63.03
43147;BME280;28752;48.266;7.402;2023-11-21T05:27:51;98944.16;;;13.79;64.27
43147;BME280;28752;48.266;7.402;2023-11-21T05:30:16;98942.53;;;13.46;63.78
43147;BME280;28752;48.266;7.402;2023-11-21T05:32:41;98947.56;;;13.64;63.52
43147;BME280;28752;48.266;7.402;2023-11-21T05:35:10;98950.03;;;13.89;63.06
43147;BME280;28752;48.266;7.402;2023-11-21T05:37:40;98954.22;;;14.07;62.88
43147;BME280;28752;48.266;7.402;2023-11-21T05:40:07;98950.25;;;14.02;63.43
43147;BME280;28752;48.266;7.402;2023-11-21T05:42:33;98955.03;;;14.07;63.94
43147;BME280;28752;48.266;7.402;2023-11-21T05:44:59;98951.28;;;14.01;64.60
43147;BME280;28752;48.266;7.402;2023-11-21T05:47:24;98946.03;;;13.93;64.90
43147;BME280;28752;48.266;7.402;2023-11-21T05:49:51;98948.84;;;13.92;64.91
43147;BME280;28752;48.266;7.402;2023-11-21T05:52:17;98948.34;;;13.73;65.38
43147;BME280;28752;48.266;7.402;2023-11-21T05:54:43;98947.22;;;13.67;66.04
43147;BME280;28752;48.266;7.402;2023-11-21T05:57:08;98943.31;;;13.55;65.80
43147;BME280;28752;48.266;7.402;2023-11-21T05:59:34;98945.28;;;13.61;65.50
43147;BME280;28752;48.266;7.402;2023-11-21T06:01:59;98939.00;;;13.77;64.62
43147;BME280;28752;48.266;7.402;2023-11-21T06:04:24;98947.56;;;13.88;64.32
43147;BME280;28752;48.266;7.402;2023-11-21T06:06:51;98951.00;;;13.50;63.40
43147;BME280;28752;48.266;7.402;2023-11-21T06:09:18;98956.25;;;13.58;63.73
43147;BME280;28752;48.266;7.402;2023-11-21T06:11:43;98956.34;;;13.73;62.80
43147;BME280;28752;48.266;7.402;2023-11-21T06:14:09;98957.91;;;13.36;64.02
43147;BME280;28752;48.266;7.402;2023-11-21T06:16:36;98959.69;;;13.44;64.17
43147;BME280;28752;48.266;7.402;2023-11-21T06:19:01;98955.56;;;13.33;64.60
43147;BME280;28752;48.266;7.402;2023-11-21T06:21:26;98966.72;;;13.37;64.61
43147;BME280;28752;48.266;7.402;2023-11-21T06:23:52;98957.44;;;13.24;65.12
43147;BME280;28752;48.266;7.402;2023-11-21T06:26:18;98966.75;;;13.20;65.23
43147;BME280;28752;48.266;7.402;2023-11-21T06:28:44;98961.16;;;13.15;65.51
43147;BME280;28752;48.266;7.402;2023-11-21T06:31:09;98975.03;;;13.25;65.31
43147;BME280;28752;48.266;7.402;2023-11-21T06:33:36;98972.59;;;13.15;65.34
43147;BME280;28752;48.266;7.402;2023-11-21T06:36:02;98974.91;;;13.19;65.69
43147;BME280;28752;48.266;7.402;2023-11-21T06:38:27;98973.34;;;13.32;65.55
43147;BME280;28752;48.266;7.402;2023-11-21T06:40:55;98970.19;;;13.37;65.38
43147;BME280;28752;48.266;7.402;2023-11-21T06:43:20;98979.41;;;13.49;65.20
43147;BME280;28752;48.266;7.402;2023-11-21T06:45:47;98976.34;;;13.38;65.52
43147;BME280;28752;48.266;7.402;2023-11-21T06:48:12;98984.38;;;13.21;66.09
43147;BME280;28752;48.266;7.402;2023-11-21T06:50:38;98974.97;;;13.10;66.55
43147;BME280;28752;48.266;7.402;2023-11-21T06:53:03;98986.34;;;13.27;65.96
43147;BME280;28752;48.266;7.402;2023-11-21T06:55:32;98982.03;;;13.35;65.83
43147;BME280;28752;48.266;7.402;2023-11-21T06:57:57;98983.84;;;13.34;65.67
43147;BME280;28752;48.266;7.402;2023-11-21T07:00:23;98992.19;;;13.54;65.19
43147;BME280;28752;48.266;7.402;2023-11-21T07:02:49;98992.13;;;13.39;65.70
43147;BME280;28752;48.266;7.402;2023-11-21T07:05:14;99000.66;;;13.58;65.45
43147;BME280;28752;48.266;7.402;2023-11-21T07:07:40;98999.63;;;13.36;66.23
43147;BME280;28752;48.266;7.402;2023-11-21T07:10:06;99002.63;;;13.64;65.67
43147;BME280;28752;48.266;7.402;2023-11-21T07:12:33;99016.81;;;13.48;66.54
43147;BME280;28752;48.266;7.402;2023-11-21T07:14:59;99008.50;;;13.51;66.34
43147;BME280;28752;48.266;7.402;2023-11-21T07:17:24;99014.44;;;13.22;67.05
43147;BME280;28752;48.266;7.402;2023-11-21T07:19:50;99011.66;;;13.55;66.51
43147;BME280;28752;48.266;7.402;2023-11-21T07:22:15;99017.34;;;13.43;66.52
43147;BME280;28752;48.266;7.402;2023-11-21T07:24:48;99015.84;;;13.49;66.04
43147;BME280;28752;48.266;7.402;2023-11-21T07:27:15;99014.69;;;13.75;65.90
43147;BME280;28752;48.266;7.402;2023-11-21T07:29:40;99023.13;;;13.55;66.27
43147;BME280;28752;48.266;7.402;2023-11-21T07:32:06;99024.38;;;13.91;65.11
43147;BME280;28752;48.266;7.402;2023-11-21T07:34:31;99025.66;;;13.48;65.99
43147;BME280;28752;48.266;7.402;2023-11-21T07:36:56;99022.03;;;13.73;65.92
43147;BME280;28752;48.266;7.402;2023-11-21T07:39:21;99024.00;;;13.94;64.73
43147;BME280;28752;48.266;7.402;2023-11-21T07:41:47;99028.59;;;14.08;64.91
43147;BME280;28752;48.266;7.402;2023-11-21T07:44:15;99037.28;;;14.02;64.31
43147;BME280;28752;48.266;7.402;2023-11-21T07:46:40;99039.81;;;13.41;65.68
43147;BME280;28752;48.266;7.402;2023-11-21T07:49:06;99037.28;;;14.02;63.41
43147;BME280;28752;48.266;7.402;2023-11-21T07:51:31;99045.91;;;14.27;62.92
43147;BME280;28752;48.266;7.402;2023-11-21T07:53:56;99038.22;;;14.32;63.01
43147;BME280;28752;48.266;7.402;2023-11-21T07:56:22;99030.84;;;13.96;64.42
43147;BME280;28752;48.266;7.402;2023-11-21T07:58:47;99044.97;;;14.20;63.69
43147;BME280;28752;48.266;7.402;2023-11-21T08:01:13;99041.56;;;13.80;65.81
43147;BME280;28752;48.266;7.402;2023-11-21T08:03:38;99036.06;;;13.58;66.38
43147;BME280;28752;48.266;7.402;2023-11-21T08:06:03;99030.13;;;13.48;67.50
43147;BME280;28752;48.266;7.402;2023-11-21T08:08:30;99046.84;;;13.17;68.83
43147;BME280;28752;48.266;7.402;2023-11-21T08:10:57;99035.66;;;13.38;68.48
43147;BME280;28752;48.266;7.402;2023-11-21T08:13:26;99046.56;;;13.12;69.09
43147;BME280;28752;48.266;7.402;2023-11-21T08:15:55;99050.25;;;13.03;69.95
43147;BME280;28752;48.266;7.402;2023-11-21T08:18:21;99047.03;;;13.15;68.81
43147;BME280;28752;48.266;7.402;2023-11-21T08:20:48;99055.09;;;12.91;69.32
43147;BME280;28752;48.266;7.402;2023-11-21T08:23:16;99050.72;;;13.06;69.48
43147;BME280;28752;48.266;7.402;2023-11-21T08:25:45;99062.94;;;13.24;68.86
43147;BME280;28752;48.266;7.402;2023-11-21T08:28:11;99059.63;;;13.22;68.35
43147;BME280;28752;48.266;7.402;2023-11-21T08:30:36;99055.09;;;13.47;67.46
43147;BME280;28752;48.266;7.402;2023-11-21T08:33:02;99045.56;;;13.53;66.97
43147;BME280;28752;48.266;7.402;2023-11-21T08:35:28;99065.72;;;13.47;66.80
43147;BME280;28752;48.266;7.402;2023-11-21T08:37:53;99059.97;;;13.66;66.66
43147;BME280;28752;48.266;7.402;2023-11-21T08:40:20;99062.41;;;13.28;67.62
43147;BME280;28752;48.266;7.402;2023-11-21T08:42:46;99062.47;;;13.68;66.99
43147;BME280;28752;48.266;7.402;2023-11-21T08:45:11;99067.31;;;13.88;66.14
43147;BME280;28752;48.266;7.402;2023-11-21T08:47:38;99079.41;;;13.98;65.32
43147;BME280;28752;48.266;7.402;2023-11-21T08:50:04;99073.53;;;13.40;66.60
43147;BME280;28752;48.266;7.402;2023-11-21T08:52:31;99071.78;;;13.95;65.75
43147;BME280;28752;48.266;7.402;2023-11-21T08:54:56;99071.38;;;13.44;66.30
43147;BME280;28752;48.266;7.402;2023-11-21T08:57:22;99082.56;;;13.94;65.07
43147;BME280;28752;48.266;7.402;2023-11-21T08:59:48;99078.09;;;13.94;65.25
43147;BME280;28752;48.266;7.402;2023-11-21T09:02:14;99078.34;;;14.08;64.41
43147;BME280;28752;48.266;7.402;2023-11-21T09:04:39;99076.97;;;14.12;65.22
43147;BME280;28752;48.266;7.402;2023-11-21T09:07:04;99079.25;;;13.92;65.13
43147;BME280;28752;48.266;7.402;2023-11-21T09:09:30;99086.69;;;13.73;65.85
43147;BME280;28752;48.266;7.402;2023-11-21T09:11:56;99085.53;;;13.76;65.15
43147;BME280;28752;48.266;7.402;2023-11-21T09:14:21;99086.72;;;13.96;65.57
43147;BME280;28752;48.266;7.402;2023-11-21T09:16:46;99092.72;;;13.67;65.54
43147;BME280;28752;48.266;7.402;2023-11-21T09:19:12;99082.97;;;13.51;65.51
43147;BME280;28752;48.266;7.402;2023-11-21T09:21:39;99100.13;;;13.80;65.41
43147;BME280;28752;48.266;7.402;2023-11-21T09:24:05;99103.13;;;13.77;65.34
43147;BME280;28752;48.266;7.402;2023-11-21T09:26:30;99102.09;;;13.86;65.17
43147;BME280;28752;48.266;7.402;2023-11-21T09:28:56;99104.53;;;13.96;64.87
43147;BME280;28752;48.266;7.402;2023-11-21T09:31:22;99111.34;;;13.67;65.49
43147;BME280;28752;48.266;7.402;2023-11-21T09:33:49;99114.28;;;13.72;65.73
43147;BME280;28752;48.266;7.402;2023-11-21T09:36:16;99119.41;;;13.82;65.38
43147;BME280;28752;48.266;7.402;2023-11-21T09:38:42;99120.53;;;14.19;64.82
43147;BME280;28752;48.266;7.402;2023-11-21T09:41:21;99122.47;;;14.02;64.92
43147;BME280;28752;48.266;7.402;2023-11-21T09:43:52;99127.22;;;14.38;64.92
43147;BME280;28752;48.266;7.402;2023-11-21T09:46:21;99121.66;;;14.48;64.62
43147;BME280;28752;48.266;7.402;2023-11-21T09:48:50;99136.47;;;14.27;64.11
43147;BME280;28752;48.266;7.402;2023-11-21T09:51:19;99140.47;;;14.23;63.92
43147;BME280;28752;48.266;7.402;2023-11-21T09:53:47;99140.66;;;14.45;63.48
43147;BME280;28752;48.266;7.402;2023-11-21T09:56:15;99133.59;;;14.75;63.00
43147;BME280;28752;48.266;7.402;2023-11-21T09:58:44;99141.16;;;14.71;62.93
43147;BME280;28752;48.266;7.402;2023-11-21T10:01:11;99154.66;;;14.85;62.68
43147;BME280;28752;48.266;7.402;2023-11-21T10:03:40;99150.66;;;15.04;62.48
43147;BME280;28752;48.266;7.402;2023-11-21T10:06:07;99147.84;;;14.67;62.36
43147;BME280;28752;48.266;7.402;2023-11-21T10:08:34;99147.22;;;14.80;62.09
43147;BME280;28752;48.266;7.402;2023-11-21T10:11:02;99139.53;;;14.85;62.43
43147;BME280;28752;48.266;7.402;2023-11-21T10:13:27;99149.94;;;15.10;61.62
43147;BME280;28752;48.266;7.402;2023-11-21T10:15:55;99154.78;;;14.91;61.39
43147;BME280;28752;48.266;7.402;2023-11-21T10:18:25;99154.34;;;15.03;61.50
43147;BME280;28752;48.266;7.402;2023-11-21T10:20:51;99160.63;;;15.25;61.15
43147;BME280;28752;48.266;7.402;2023-11-21T10:23:18;99157.84;;;15.03;61.91
43147;BME280;28752;48.266;7.402;2023-11-21T10:25:44;99156.50;;;15.37;61.57
43147;BME280;28752;48.266;7.402;2023-11-21T10:28:09;99148.78;;;15.27;61.84
43147;BME280;28752;48.266;7.402;2023-11-21T10:30:37;99156.31;;;15.54;61.75
43147;BME280;28752;48.266;7.402;2023-11-21T10:33:04;99161.16;;;15.65;61.67
43147;BME280;28752;48.266;7.402;2023-11-21T10:38:07;99171.75;;;15.73;60.87
43147;BME280;28752;48.266;7.402;2023-11-21T10:40:37;99169.56;;;15.62;61.43
43147;BME280;28752;48.266;7.402;2023-11-21T10:43:12;99169.44;;;16.00;61.34
43147;BME280;28752;48.266;7.402;2023-11-21T10:45:38;99163.78;;;16.25;61.67
43147;BME280;28752;48.266;7.402;2023-11-21T10:48:08;99164.78;;;16.24;61.56
43147;BME280;28752;48.266;7.402;2023-11-21T10:50:34;99160.25;;;16.24;62.09
43147;BME280;28752;48.266;7.402;2023-11-21T10:53:04;99162.63;;;16.12;61.59
43147;BME280;28752;48.266;7.402;2023-11-21T10:55:32;99162.41;;;16.50;60.92
43147;BME280;28752;48.266;7.402;2023-11-21T10:58:03;99170.41;;;16.50;61.45
43147;BME280;28752;48.266;7.402;2023-11-21T11:00:30;99157.41;;;16.69;61.27
43147;BME280;28752;48.266;7.402;2023-11-21T11:02:56;99175.63;;;16.59;60.47
43147;BME280;28752;48.266;7.402;2023-11-21T11:05:25;99162.31;;;16.44;59.66
43147;BME280;28752;48.266;7.402;2023-11-21T11:07:53;99173.72;;;16.31;58.08
43147;BME280;28752;48.266;7.402;2023-11-21T11:10:25;99177.78;;;16.48;57.57
43147;BME280;28752;48.266;7.402;2023-11-21T11:12:53;99182.69;;;16.45;57.43
43147;BME280;28752;48.266;7.402;2023-11-21T11:15:19;99180.34;;;16.57;57.25
43147;BME280;28752;48.266;7.402;2023-11-21T11:17:46;99180.41;;;16.42;57.31
43147;BME280;28752;48.266;7.402;2023-11-21T11:20:12;99182.41;;;16.40;57.41
43147;BME280;28752;48.266;7.402;2023-11-21T11:22:43;99181.69;;;16.46;58.10
43147;BME280;28752;48.266;7.402;2023-11-21T11:27:55;99184.88;;;16.41;58.93
43147;BME280;28752;48.266;7.402;2023-11-21T11:30:39;99181.91;;;16.29;59.12
43147;BME280;28752;48.266;7.402;2023-11-21T11:33:20;99182.56;;;15.80;59.55
43147;BME280;28752;48.266;7.402;2023-11-21T11:36:01;99186.94;;;16.03;59.22
43147;BME280;28752;48.266;7.402;2023-11-21T11:38:31;99178.00;;;15.95;59.71
43147;BME280;28752;48.266;7.402;2023-11-21T11:41:01;99186.69;;;15.83;60.20
43147;BME280;28752;48.266;7.402;2023-11-21T11:43:29;99174.66;;;15.87;60.81
43147;BME280;28752;48.266;7.402;2023-11-21T11:45:56;99177.94;;;15.89;61.15
43147;BME280;28752;48.266;7.402;2023-11-21T11:48:22;99176.63;;;15.99;61.22
43147;BME280;28752;48.266;7.402;2023-11-21T11:53:35;99171.91;;;16.02;61.50
43147;BME280;28752;48.266;7.402;2023-11-21T11:56:28;99154.69;;;16.04;61.09
43147;BME280;28752;48.266;7.402;2023-11-21T11:58:56;99168.75;;;16.28;60.83
43147;BME280;28752;48.266;7.402;2023-11-21T12:01:24;99172.84;;;16.30;60.00
43147;BME280;28752;48.266;7.402;2023-11-21T12:06:42;99167.09;;;16.48;58.95
43147;BME280;28752;48.266;7.402;2023-11-21T12:09:19;99169.56;;;16.72;59.18
43147;BME280;28752;48.266;7.402;2023-11-21T12:11:47;99173.28;;;16.70;58.82
43147;BME280;28752;48.266;7.402;2023-11-21T12:14:14;99179.91;;;16.75;57.96
43147;BME280;28752;48.266;7.402;2023-11-21T12:16:39;99168.44;;;16.81;57.43
43147;BME280;28752;48.266;7.402;2023-11-21T12:19:05;99166.38;;;16.83;57.68
43147;BME280;28752;48.266;7.402;2023-11-21T12:21:30;99174.47;;;16.68;57.30
43147;BME280;28752;48.266;7.402;2023-11-21T12:23:57;99175.31;;;16.90;57.25
43147;BME280;28752;48.266;7.402;2023-11-21T12:26:24;99185.97;;;16.68;57.47
43147;BME280;28752;48.266;7.402;2023-11-21T12:28:52;99186.25;;;16.52;57.17
43147;BME280;28752;48.266;7.402;2023-11-21T12:31:23;99183.31;;;16.68;56.66
43147;BME280;28752;48.266;7.402;2023-11-21T12:33:48;99180.38;;;16.85;56.33
43147;BME280;28752;48.266;7.402;2023-11-21T12:36:14;99183.19;;;16.77;56.38
43147;BME280;28752;48.266;7.402;2023-11-21T12:38:40;99186.28;;;16.80;55.41
43147;BME280;28752;48.266;7.402;2023-11-21T12:41:06;99179.81;;;16.68;56.00
43147;BME280;28752;48.266;7.402;2023-11-21T12:43:35;99190.69;;;16.45;54.78
43147;BME280;28752;48.266;7.402;2023-11-21T12:46:08;99187.41;;;16.43;55.55
43147;BME280;28752;48.266;7.402;2023-11-21T12:48:37;99190.88;;;16.43;55.49
43147;BME280;28752;48.266;7.402;2023-11-21T12:51:05;99192.59;;;15.93;56.69
43147;BME280;28752;48.266;7.402;2023-11-21T12:53:32;99186.94;;;16.03;57.26
43147;BME280;28752;48.266;7.402;2023-11-21T12:56:02;99195.78;;;15.73;57.22
43147;BME280;28752;48.266;7.402;2023-11-21T12:58:28;99195.69;;;15.67;57.41
43147;BME280;28752;48.266;7.402;2023-11-21T13:00:57;99189.91;;;15.63;57.54
43147;BME280;28752;48.266;7.402;2023-11-21T13:03:24;99199.91;;;16.06;56.91
43147;BME280;28752;48.266;7.402;2023-11-21T13:05:51;99199.00;;;15.69;56.79
43147;BME280;28752;48.266;7.402;2023-11-21T13:08:20;99205.72;;;15.64;57.09